createdAt,value
2022-12-04T00:01:24.844Z,-23200.31
2022-12-04T00:03:27.491Z,-23197.94
2022-12-04T00:05:30.209Z,-23196.34
2022-12-04T00:07:32.966Z,-23199.84
2022-12-04T00:09:35.638Z,-23196.03
2022-12-04T00:11:39.408Z,-23196.34
2022-12-04T00:13:42.479Z,-23196.66
2022-12-04T00:15:45.090Z,-23200.31
2022-12-04T00:17:49.607Z,-23194.91
2022-12-04T00:19:52.426Z,-23195.53
2022-12-04T00:21:55.405Z,-23196.97
2022-12-04T00:23:58.112Z,-23195.06
2022-12-04T00:26:01.857Z,-23200.50
2022-12-04T00:28:04.574Z,-23200.16
2022-12-04T00:30:08.565Z,-23200.50
2022-12-04T00:32:11.231Z,-23196.66
2022-12-04T00:34:15.403Z,-23195.06
2022-12-04T00:36:20.209Z,-23200.50
2022-12-04T00:38:22.858Z,-23193.16
2022-12-04T00:40:25.563Z,-23197.28
2022-12-04T00:42:28.289Z,-23199.69
2022-12-04T00:44:30.932Z,-23200.50
2022-12-04T00:46:33.666Z,-23198.56
2022-12-04T00:48:36.417Z,-23195.38
2022-12-04T00:50:40.905Z,-23196.03
2022-12-04T00:52:43.552Z,-23198.25
2022-12-04T00:54:46.335Z,-23198.88
2022-12-04T00:56:49.085Z,-23194.41
2022-12-04T00:58:53.125Z,-23200.00
2022-12-04T01:01:03.379Z,-23199.84
2022-12-04T01:03:07.123Z,-23197.47
2022-12-04T01:05:10.059Z,-23199.06
2022-12-04T01:07:14.114Z,-23197.94
2022-12-04T01:09:16.850Z,-23200.16
2022-12-04T01:11:21.018Z,-23200.66
2022-12-04T01:13:24.326Z,-23201.75
2022-12-04T01:15:27.027Z,-23195.69
2022-12-04T01:17:29.718Z,-23200.50
2022-12-04T01:19:32.443Z,-23199.53
2022-12-04T01:21:35.479Z,-23202.25
2022-12-04T01:23:39.474Z,-23204.31
2022-12-04T01:25:42.117Z,-23201.94
2022-12-04T01:27:44.730Z,-23199.69
2022-12-04T01:29:47.455Z,-23195.22
2022-12-04T01:31:50.099Z,-23198.72
2022-12-04T01:33:53.155Z,-23200.16
2022-12-04T01:35:57.471Z,-23197.78
2022-12-04T01:38:00.089Z,-23200.50
2022-12-04T01:40:05.256Z,-23202.88
2022-12-04T01:42:11.473Z,-23198.88
2022-12-04T01:44:17.883Z,-23197.94
2022-12-04T01:46:20.743Z,-23198.25
2022-12-04T01:48:27.682Z,-23196.66
2022-12-04T01:50:30.315Z,-23201.59
2022-12-04T01:52:33.002Z,-23201.13
2022-12-04T01:54:38.191Z,-23200.16
2022-12-04T01:56:46.176Z,-23205.75
2022-12-04T01:58:53.709Z,-23207.84
2022-12-04T02:01:03.746Z,-23204.63
2022-12-04T02:03:09.135Z,-23205.13
2022-12-04T02:05:14.798Z,-23204.00
2022-12-04T02:07:17.563Z,-23196.50
2022-12-04T02:09:26.147Z,-23203.03
2022-12-04T02:11:39.054Z,-23198.25
2022-12-04T02:13:54.473Z,-23202.72
2022-12-04T02:16:06.111Z,-23206.41
2022-12-04T02:18:15.889Z,-23207.84
2022-12-04T02:20:31.763Z,-23203.69
2022-12-04T02:22:53.478Z,-23200.00
2022-12-04T02:25:02.753Z,-23199.38
2022-12-04T02:27:09.759Z,-23198.88
2022-12-04T02:29:25.814Z,-23198.41
2022-12-04T02:31:34.802Z,-23200.81
2022-12-04T02:33:48.682Z,-23196.97
2022-12-04T02:35:56.125Z,-23206.41
2022-12-04T02:38:07.511Z,-23205.59
2022-12-04T02:40:17.863Z,-23207.19
2022-12-04T02:42:29.055Z,-23205.91
2022-12-04T02:44:38.165Z,-23199.53
2022-12-04T02:46:43.808Z,-23198.09
2022-12-04T02:48:50.273Z,-23197.63
2022-12-04T02:50:56.887Z,-23199.69
2022-12-04T02:53:05.486Z,-23196.66
2022-12-04T02:55:14.880Z,-23202.09
2022-12-04T02:57:22.111Z,-23206.56
2022-12-04T02:59:30.273Z,-23200.97
2022-12-04T03:01:37.112Z,-23203.69
2022-12-04T03:03:39.953Z,-23198.41
2022-12-04T03:05:49.353Z,-23199.53
2022-12-04T03:07:56.495Z,-23200.50
2022-12-04T03:10:03.767Z,-23200.97
2022-12-04T03:12:11.885Z,-23199.22
2022-12-04T03:14:19.553Z,-23194.09
2022-12-04T03:16:26.453Z,-23196.66
2022-12-04T03:18:34.201Z,-23199.84
2022-12-04T03:20:38.269Z,-23201.59
2022-12-04T03:22:43.648Z,-23198.88
2022-12-04T03:24:51.729Z,-23204.31
2022-12-04T03:27:01.718Z,-23200.31
2022-12-04T03:29:11.405Z,-23205.28
2022-12-04T03:31:17.440Z,-23198.72
2022-12-04T03:33:24.678Z,-23196.97
2022-12-04T03:35:34.326Z,-23193.78
2022-12-04T03:37:41.968Z,-23192.50
2022-12-04T03:39:51.112Z,-23198.41
2022-12-04T03:42:00.532Z,-23194.75
2022-12-04T03:44:09.875Z,-23194.25
2022-12-04T03:46:19.750Z,-23194.09
2022-12-04T03:48:25.402Z,-23199.22
2022-12-04T03:50:37.126Z,-23196.97
2022-12-04T03:52:52.907Z,-23196.19
2022-12-04T03:55:01.109Z,-23199.53
2022-12-04T03:57:09.109Z,-23199.53
2022-12-04T03:59:17.030Z,-23196.81
2022-12-04T04:01:24.045Z,-23193.78
2022-12-04T04:03:29.444Z,-23202.41
2022-12-04T04:05:36.044Z,-23202.88
2022-12-04T04:07:42.694Z,-23205.44
2022-12-04T04:09:51.386Z,-23203.03
2022-12-04T04:11:59.243Z,-23199.22
2022-12-04T04:14:23.883Z,-23195.06
2022-12-04T04:16:47.667Z,-23199.69
2022-12-04T04:19:10.976Z,-23204.31
2022-12-04T04:21:37.454Z,-23201.75
2022-12-04T04:24:01.420Z,-23200.66
2022-12-04T04:26:05.406Z,-23203.38
2022-12-04T04:28:29.767Z,-23204.31
2022-12-04T04:30:35.431Z,-23201.28
2022-12-04T04:32:43.950Z,-23196.97
2022-12-04T04:34:52.909Z,-23196.81
2022-12-04T04:37:06.803Z,-23203.69
2022-12-04T04:39:20.750Z,-23203.38
2022-12-04T04:41:30.322Z,-23199.84
2022-12-04T04:43:36.808Z,-23200.81
2022-12-04T04:45:45.721Z,-23200.66
2022-12-04T04:47:53.058Z,-23202.09
2022-12-04T04:49:59.293Z,-23204.31
2022-12-04T04:52:04.045Z,-23200.97
2022-12-04T04:54:09.790Z,-23194.25
2022-12-04T04:56:13.286Z,-23190.09
2022-12-04T04:58:18.711Z,-23192.81
2022-12-04T05:00:23.644Z,-23198.88
2022-12-04T05:02:27.590Z,-23193.63
2022-12-04T05:04:34.337Z,-23194.75
2022-12-04T05:06:37.107Z,-23195.69
2022-12-04T05:08:41.131Z,-23197.28
2022-12-04T05:10:43.817Z,-23197.94
2022-12-04T05:12:46.462Z,-23194.91
2022-12-04T05:14:49.332Z,-23190.91
2022-12-04T05:16:52.001Z,-23188.19
2022-12-04T05:19:12.066Z,-23190.75
2022-12-04T05:21:17.018Z,-23191.06
2022-12-04T05:23:19.694Z,-23189.47
2022-12-04T05:25:23.696Z,-23192.50
2022-12-04T05:27:27.916Z,-23192.81
2022-12-04T05:29:35.563Z,-23194.75
2022-12-04T05:31:38.559Z,-23198.41
2022-12-04T05:33:41.304Z,-23200.16
2022-12-04T05:35:43.951Z,-23199.84
2022-12-04T05:37:46.678Z,-23195.06
2022-12-04T05:39:49.294Z,-23195.53
2022-12-04T05:41:53.313Z,-23199.84
2022-12-04T05:43:55.961Z,-23194.59
2022-12-04T05:46:01.907Z,-23194.09
2022-12-04T05:48:05.092Z,-23194.91
2022-12-04T05:50:09.906Z,-23193.94
2022-12-04T05:52:12.644Z,-23196.03
2022-12-04T05:54:15.286Z,-23202.56
2022-12-04T05:56:17.989Z,-23197.94
2022-12-04T05:58:21.975Z,-23197.94
2022-12-04T06:00:24.913Z,-23197.13
2022-12-04T06:02:27.646Z,-23199.38
2022-12-04T06:04:30.542Z,-23194.75
2022-12-04T06:06:33.558Z,-23200.16
2022-12-04T06:08:36.178Z,-23197.13
2022-12-04T06:10:38.978Z,-23194.75
2022-12-04T06:12:41.735Z,-23195.38
2022-12-04T06:14:45.786Z,-23199.84
2022-12-04T06:16:48.488Z,-23198.56
2022-12-04T06:18:51.626Z,-23195.38
2022-12-04T06:20:54.399Z,-23196.34
2022-12-04T06:22:57.132Z,-23196.97
2022-12-04T06:24:59.788Z,-23197.78
2022-12-04T06:27:26.637Z,-23196.97
2022-12-04T06:29:25.112Z,-23201.75
2022-12-04T06:31:30.747Z,-23200.66
2022-12-04T06:33:33.642Z,-23203.03
2022-12-04T06:35:36.247Z,-23202.41
2022-12-04T06:37:38.922Z,-23199.38
2022-12-04T06:39:41.577Z,-23197.78
2022-12-04T06:41:44.256Z,-23200.16
2022-12-04T06:43:47.061Z,-23196.97
2022-12-04T06:45:50.290Z,-23196.81
2022-12-04T06:47:54.311Z,-23200.16
2022-12-04T06:49:57.135Z,-23195.06
2022-12-04T06:51:59.965Z,-23196.03
2022-12-04T06:54:03.281Z,-23196.97
2022-12-04T06:56:08.539Z,-23202.56
2022-12-04T06:58:11.183Z,-23194.75
2022-12-04T07:00:14.602Z,-23196.97
2022-12-04T07:02:17.438Z,-23198.09
2022-12-04T07:04:21.483Z,-23196.19
2022-12-04T07:06:26.253Z,-23196.50
2022-12-04T07:08:28.884Z,-23196.19
2022-12-04T07:10:31.589Z,-23201.44
2022-12-04T07:12:34.244Z,-23199.53
2022-12-04T07:14:36.885Z,-23200.16
2022-12-04T07:16:41.945Z,-23202.09
2022-12-04T07:18:45.173Z,-23199.06
2022-12-04T07:20:49.201Z,-23198.88
2022-12-04T07:22:51.886Z,-23203.53
2022-12-04T07:24:54.601Z,-23200.81
2022-12-04T07:26:57.280Z,-23201.28
2022-12-04T07:29:00.941Z,-23203.03
2022-12-04T07:31:05.528Z,-23204.00
2022-12-04T07:33:08.258Z,-23200.81
2022-12-04T07:35:10.917Z,-23198.88
2022-12-04T07:37:15.015Z,-23200.00
2022-12-04T07:39:17.650Z,-23200.81
2022-12-04T07:41:20.815Z,-23206.56
2022-12-04T07:43:23.422Z,-23199.38
2022-12-04T07:45:26.047Z,-23201.13
2022-12-04T07:47:28.657Z,-23200.66
2022-12-04T07:49:31.397Z,-23203.53
2022-12-04T07:51:33.980Z,-23207.19
2022-12-04T07:53:38.481Z,-23207.03
2022-12-04T07:55:41.206Z,-23211.03
2022-12-04T07:57:43.812Z,-23210.69
2022-12-04T07:59:46.452Z,-23206.56
2022-12-04T08:01:49.110Z,-23207.03
2022-12-04T08:03:55.974Z,-23205.28
2022-12-04T08:06:00.830Z,-23203.53
2022-12-04T08:08:03.604Z,-23208.31
2022-12-04T08:10:09.047Z,-23208.78
2022-12-04T08:12:11.673Z,-23211.34
2022-12-04T08:14:14.867Z,-23211.19
2022-12-04T08:16:17.623Z,-23210.38
2022-12-04T08:18:20.392Z,-23213.56
2022-12-04T08:20:23.271Z,-23208.78
2022-12-04T08:22:26.689Z,-23210.56
2022-12-04T08:24:29.386Z,-23213.56
2022-12-04T08:26:34.225Z,-23216.44
2022-12-04T08:28:38.019Z,-23214.84
2022-12-04T08:30:40.676Z,-23214.53
2022-12-04T08:32:43.353Z,-23214.84
2022-12-04T08:34:49.811Z,-23208.47
2022-12-04T08:36:55.248Z,-23208.94
2022-12-04T08:38:57.974Z,-23212.00
2022-12-04T08:41:01.291Z,-23211.50
2022-12-04T08:43:05.311Z,-23209.44
2022-12-04T08:45:09.197Z,-23217.72
2022-12-04T08:47:11.861Z,-23213.25
2022-12-04T08:49:14.469Z,-23212.63
2022-12-04T08:51:19.148Z,-23212.63
2022-12-04T08:53:22.478Z,-23209.91
2022-12-04T08:55:25.072Z,-23214.38
2022-12-04T08:57:27.766Z,-23215.34
2022-12-04T08:59:31.761Z,-23215.19
2022-12-04T09:01:34.442Z,-23217.72
2022-12-04T09:03:37.568Z,-23212.31
2022-12-04T09:05:41.429Z,-23211.81
2022-12-04T09:07:44.164Z,-23214.38
2022-12-04T09:09:48.502Z,-23212.31
2022-12-04T09:11:51.304Z,-23212.63
2022-12-04T09:13:54.468Z,-23212.47
2022-12-04T09:15:58.588Z,-23210.88
2022-12-04T09:18:01.585Z,-23212.00
2022-12-04T09:20:08.054Z,-23214.22
2022-12-04T09:22:10.866Z,-23221.56
2022-12-04T09:24:13.606Z,-23218.53
2022-12-04T09:26:22.681Z,-23219.16
2022-12-04T09:28:25.420Z,-23219.81
2022-12-04T09:30:28.113Z,-23219.31
2022-12-04T09:32:32.151Z,-23221.56
2022-12-04T09:34:34.864Z,-23216.78
2022-12-04T09:36:38.449Z,-23216.13
2022-12-04T09:38:41.126Z,-23218.53
2022-12-04T09:40:51.567Z,-23218.53
2022-12-04T09:43:00.326Z,-23218.06
2022-12-04T09:45:10.494Z,-23214.84
2022-12-04T09:47:19.564Z,-23214.53
2022-12-04T09:49:28.732Z,-23215.81
2022-12-04T09:51:32.942Z,-23211.66
2022-12-04T09:53:44.935Z,-23208.47
2022-12-04T09:55:54.866Z,-23213.41
2022-12-04T09:58:02.418Z,-23214.53
2022-12-04T10:00:07.272Z,-23206.88
2022-12-04T10:02:25.916Z,-23208.31
2022-12-04T10:04:31.261Z,-23212.94
2022-12-04T10:06:40.904Z,-23219.31
2022-12-04T10:08:46.388Z,-23215.50
2022-12-04T10:10:58.032Z,-23218.06
2022-12-04T10:13:13.190Z,-23219.31
2022-12-04T10:15:27.332Z,-23220.59
2022-12-04T10:17:55.640Z,-23218.38
2022-12-04T10:20:04.895Z,-23218.22
2022-12-04T10:22:15.814Z,-23218.53
2022-12-04T10:24:29.841Z,-23218.38
2022-12-04T10:26:37.706Z,-23219.31
2022-12-04T10:28:44.354Z,-23215.50
2022-12-04T10:30:48.595Z,-23214.53
2022-12-04T10:32:57.596Z,-23215.81
2022-12-04T10:35:15.508Z,-23218.69
2022-12-04T10:37:18.181Z,-23219.97
2022-12-04T10:39:24.916Z,-23224.91
2022-12-04T10:41:32.183Z,-23221.88
2022-12-04T10:43:43.452Z,-23220.28
2022-12-04T10:45:46.219Z,-23217.88
2022-12-04T10:47:51.390Z,-23210.88
2022-12-04T10:50:00.975Z,-23212.13
2022-12-04T10:52:05.912Z,-23216.28
2022-12-04T10:54:19.652Z,-23221.72
2022-12-04T10:56:24.305Z,-23216.28
2022-12-04T10:58:27.151Z,-23220.75
2022-12-04T11:00:31.955Z,-23216.13
2022-12-04T11:02:36.105Z,-23215.34
2022-12-04T11:04:39.145Z,-23215.66
2022-12-04T11:06:41.790Z,-23215.66
2022-12-04T11:08:51.876Z,-23214.22
2022-12-04T11:10:59.989Z,-23217.09
2022-12-04T11:13:05.833Z,-23222.03
2022-12-04T11:15:15.291Z,-23218.53
2022-12-04T11:17:20.268Z,-23214.22
2022-12-04T11:19:25.493Z,-23216.13
2022-12-04T11:21:31.832Z,-23219.66
2022-12-04T11:23:36.561Z,-23222.34
2022-12-04T11:25:46.677Z,-23220.44
2022-12-04T11:27:51.779Z,-23218.38
2022-12-04T11:29:55.398Z,-23220.94
2022-12-04T11:32:04.172Z,-23219.00
2022-12-04T11:34:16.697Z,-23216.13
2022-12-04T11:36:22.838Z,-23218.38
2022-12-04T11:38:28.418Z,-23209.44
2022-12-04T11:40:31.750Z,-23216.13
2022-12-04T11:42:35.777Z,-23218.38
2022-12-04T11:44:38.427Z,-23216.94
2022-12-04T11:46:41.122Z,-23222.69
2022-12-04T11:48:45.796Z,-23228.09
2022-12-04T11:50:55.322Z,-23220.59
2022-12-04T11:53:07.312Z,-23221.09
2022-12-04T11:55:17.126Z,-23219.66
2022-12-04T11:57:31.106Z,-23213.41
2022-12-04T11:59:49.483Z,-23219.16
2022-12-04T12:02:00.195Z,-23217.09
2022-12-04T12:04:20.541Z,-23210.88
2022-12-04T12:06:34.070Z,-23217.25
2022-12-04T12:08:51.594Z,-23215.81
2022-12-04T12:11:01.512Z,-23213.25
2022-12-04T12:13:13.144Z,-23214.53
2022-12-04T12:15:24.499Z,-23214.22
2022-12-04T12:17:35.419Z,-23213.75
2022-12-04T12:20:17.156Z,-23218.06
2022-12-04T12:22:28.894Z,-23219.00
2022-12-04T12:24:37.644Z,-23217.09
2022-12-04T12:26:47.176Z,-23218.38
2022-12-04T12:29:10.291Z,-23223.31
2022-12-04T12:31:34.791Z,-23222.34
2022-12-04T12:33:43.583Z,-23228.25
2022-12-04T12:36:01.698Z,-23223.78
2022-12-04T12:38:10.960Z,-23234.97
2022-12-04T12:40:22.365Z,-23225.38
2022-12-04T12:42:32.211Z,-23220.59
2022-12-04T12:44:41.742Z,-23224.44
2022-12-04T12:46:51.615Z,-23228.25
2022-12-04T12:49:02.871Z,-23232.72
2022-12-04T12:51:29.551Z,-23233.38
2022-12-04T12:53:38.144Z,-23234.66
2022-12-04T12:55:45.711Z,-23228.41
2022-12-04T12:57:55.512Z,-23221.88
2022-12-04T13:00:04.861Z,-23226.34
2022-12-04T13:02:19.285Z,-23227.78
2022-12-04T13:04:27.628Z,-23229.53
2022-12-04T13:06:35.833Z,-23225.22
2022-12-04T13:08:44.994Z,-23226.03
2022-12-04T13:11:02.398Z,-23227.78
2022-12-04T13:13:09.360Z,-23230.03
2022-12-04T13:15:15.720Z,-23231.63
2022-12-04T13:17:34.691Z,-23228.91
2022-12-04T13:19:44.160Z,-23219.97
2022-12-04T13:21:50.637Z,-23224.13
2022-12-04T13:24:12.695Z,-23227.47
2022-12-04T13:26:31.741Z,-23224.13
2022-12-04T13:28:49.446Z,-23229.22
2022-12-04T13:30:56.656Z,-23228.41
2022-12-04T13:33:27.589Z,-23224.59
2022-12-04T13:35:46.696Z,-23224.28
2022-12-04T13:38:07.262Z,-23228.91
2022-12-04T13:40:34.256Z,-23222.03
2022-12-04T13:42:37.128Z,-23224.75
2022-12-04T13:44:41.583Z,-23229.84
2022-12-04T13:46:53.530Z,-23234.97
2022-12-04T13:49:09.054Z,-23224.75
2022-12-04T13:51:27.395Z,-23223.47
2022-12-04T13:53:32.022Z,-23221.56
2022-12-04T13:55:36.662Z,-23224.44
2022-12-04T13:57:41.295Z,-23224.59
2022-12-04T13:59:45.075Z,-23229.53
2022-12-04T14:01:49.577Z,-23230.50
2022-12-04T14:03:55.464Z,-23231.47
2022-12-04T14:06:05.205Z,-23221.72
2022-12-04T14:08:23.607Z,-23224.44
2022-12-04T14:10:29.538Z,-23224.28
2022-12-04T14:12:36.147Z,-23224.91
2022-12-04T14:14:44.345Z,-23226.19
2022-12-04T14:16:49.744Z,-23229.53
2022-12-04T14:18:56.144Z,-23227.47
2022-12-04T14:21:03.062Z,-23231.63
2022-12-04T14:23:10.031Z,-23228.91
2022-12-04T14:25:35.456Z,-23230.50
2022-12-04T14:27:45.968Z,-23236.41
2022-12-04T14:29:53.012Z,-23233.69
2022-12-04T14:31:56.998Z,-23238.94
2022-12-04T14:34:02.668Z,-23222.50
2022-12-04T14:36:11.525Z,-23221.56
2022-12-04T14:38:21.218Z,-23232.09
2022-12-04T14:40:28.348Z,-23231.94
2022-12-04T14:42:37.412Z,-23231.28
2022-12-04T14:44:41.252Z,-23229.84
2022-12-04T14:46:48.772Z,-23230.03
2022-12-04T14:49:00.088Z,-23238.16
2022-12-04T14:51:13.155Z,-23235.59
2022-12-04T14:53:27.353Z,-23229.53
2022-12-04T14:55:38.169Z,-23230.50
2022-12-04T14:57:53.670Z,-23232.72
2022-12-04T14:59:56.840Z,-23231.47
2022-12-04T15:01:59.485Z,-23229.53
2022-12-04T15:04:11.585Z,-23232.41
2022-12-04T15:06:21.666Z,-23231.13
2022-12-04T15:08:24.267Z,-23238.00
2022-12-04T15:11:01.515Z,-23237.50
2022-12-04T15:13:04.213Z,-23239.59
2022-12-04T15:15:14.749Z,-23234.81
2022-12-04T15:17:19.579Z,-23244.06
2022-12-04T15:19:22.578Z,-23230.50
2022-12-04T15:21:35.429Z,-23227.00
2022-12-04T15:23:41.407Z,-23230.03
2022-12-04T15:25:46.578Z,-23233.03
2022-12-04T15:27:51.606Z,-23227.63
2022-12-04T15:29:58.515Z,-23224.59
2022-12-04T15:32:03.593Z,-23226.66
2022-12-04T15:34:13.604Z,-23227.63
2022-12-04T15:36:20.825Z,-23227.47
2022-12-04T15:38:24.974Z,-23227.16
2022-12-04T15:40:30.028Z,-23227.31
2022-12-04T15:42:32.946Z,-23228.25
2022-12-04T15:44:36.477Z,-23229.38
2022-12-04T15:46:39.190Z,-23228.59
2022-12-04T15:48:47.516Z,-23229.38
2022-12-04T15:50:57.606Z,-23228.09
2022-12-04T15:53:07.246Z,-23230.97
2022-12-04T15:55:18.461Z,-23229.84
2022-12-04T15:57:27.800Z,-23226.66
2022-12-04T15:59:32.025Z,-23227.63
2022-12-04T16:01:39.845Z,-23229.69
2022-12-04T16:03:47.999Z,-23232.09
2022-12-04T16:05:50.711Z,-23230.03
2022-12-04T16:07:54.733Z,-23230.19
2022-12-04T16:10:03.221Z,-23228.09
2022-12-04T16:12:19.073Z,-23228.75
2022-12-04T16:14:21.712Z,-23226.03
2022-12-04T16:16:24.450Z,-23219.97
2022-12-04T16:18:29.278Z,-23224.44
2022-12-04T16:20:32.107Z,-23227.47
2022-12-04T16:22:34.731Z,-23228.91
2022-12-04T16:24:37.426Z,-23230.81
2022-12-04T16:26:40.082Z,-23230.50
2022-12-04T16:28:44.166Z,-23229.84
2022-12-04T16:30:47.058Z,-23230.50
2022-12-04T16:32:49.887Z,-23231.47
2022-12-04T16:34:52.608Z,-23233.38
2022-12-04T16:36:55.219Z,-23226.34
2022-12-04T16:38:58.022Z,-23225.72
2022-12-04T16:41:00.634Z,-23227.94
2022-12-04T16:43:03.313Z,-23225.72
2022-12-04T16:45:21.505Z,-23224.91
2022-12-04T16:47:24.174Z,-23224.44
2022-12-04T16:49:26.791Z,-23226.34
2022-12-04T16:51:29.414Z,-23227.00
2022-12-04T16:53:32.128Z,-23223.31
2022-12-04T16:55:37.126Z,-23224.28
2022-12-04T16:57:39.861Z,-23226.03
2022-12-04T16:59:42.661Z,-23223.47
2022-12-04T17:01:48.867Z,-23227.31
2022-12-04T17:03:52.616Z,-23224.91
2022-12-04T17:05:56.016Z,-23225.38
2022-12-04T17:07:58.822Z,-23222.50
2022-12-04T17:10:01.529Z,-23228.75
2022-12-04T17:12:04.193Z,-23234.97
2022-12-04T17:14:07.908Z,-23231.63
2022-12-04T17:16:14.655Z,-23231.78
2022-12-04T17:18:21.292Z,-23230.34
2022-12-04T17:20:24.342Z,-23229.69
2022-12-04T17:22:27.309Z,-23227.63
2022-12-04T17:24:30.017Z,-23226.34
2022-12-04T17:26:32.860Z,-23223.16
2022-12-04T17:28:36.402Z,-23225.22
2022-12-04T17:30:39.341Z,-23223.16
2022-12-04T17:32:42.057Z,-23223.78
2022-12-04T17:34:46.055Z,-23227.78
2022-12-04T17:36:48.749Z,-23226.19
2022-12-04T17:38:54.353Z,-23222.19
2022-12-04T17:41:00.987Z,-23224.13
2022-12-04T17:43:03.560Z,-23225.72
2022-12-04T17:45:07.139Z,-23228.25
2022-12-04T17:47:10.211Z,-23221.72
2022-12-04T17:49:13.094Z,-23223.00
2022-12-04T17:51:18.908Z,-23226.50
2022-12-04T17:53:21.519Z,-23228.25
2022-12-04T17:55:24.199Z,-23229.22
2022-12-04T17:57:27.143Z,-23230.19
2022-12-04T17:59:30.203Z,-23227.00
2022-12-04T18:01:32.910Z,-23223.47
2022-12-04T18:03:36.402Z,-23224.75
2022-12-04T18:05:39.024Z,-23229.38
2022-12-04T18:07:43.111Z,-23228.41
2022-12-04T18:09:45.867Z,-23224.13
2022-12-04T18:11:49.100Z,-23229.53
2022-12-04T18:13:55.846Z,-23229.84
2022-12-04T18:16:03.324Z,-23231.78
2022-12-04T18:18:06.097Z,-23221.56
2022-12-04T18:20:10.125Z,-23221.25
2022-12-04T18:22:13.107Z,-23219.97
2022-12-04T18:24:18.104Z,-23220.59
2022-12-04T18:26:22.454Z,-23222.84
2022-12-04T18:28:25.423Z,-23221.56
2022-12-04T18:30:28.089Z,-23224.59
2022-12-04T18:32:30.756Z,-23220.59
2022-12-04T18:34:33.505Z,-23218.53
2022-12-04T18:36:38.615Z,-23216.44
2022-12-04T18:38:41.375Z,-23218.38
2022-12-04T18:40:45.333Z,-23219.00
2022-12-04T18:42:47.978Z,-23215.97
2022-12-04T18:44:50.547Z,-21184.50
2022-12-04T18:46:53.640Z,-17821.25
2022-12-04T18:48:58.795Z,-15278.50
2022-12-04T18:51:01.751Z,-14005.59
2022-12-04T18:53:04.920Z,-13050.38
2022-12-04T18:55:08.210Z,-12412.69
2022-12-04T18:57:12.194Z,-9228.91
2022-12-04T18:59:17.237Z,-8272.63
2022-12-04T19:01:20.868Z,-6997.53
2022-12-04T19:03:23.545Z,-5403.03
2022-12-04T19:05:26.253Z,-4126.94
2022-12-04T19:07:29.021Z,-5083.88
2022-12-04T19:10:08.986Z,-4764.81
2022-12-04T19:11:54.451Z,-615.09
2022-12-04T19:13:58.817Z,-1893.00
2022-12-04T19:16:01.523Z,-935.25
2022-12-04T19:18:04.119Z,981.34
2022-12-04T19:20:08.187Z,981.16
2022-12-04T19:22:10.875Z,1300.59
2022-12-04T19:24:14.041Z,3538.59
2022-12-04T19:26:16.765Z,3218.56
2022-12-04T19:28:19.458Z,4177.88
2022-12-04T19:30:23.475Z,5778.66
2022-12-04T19:32:26.745Z,5457.81
2022-12-04T19:34:29.520Z,5137.00
2022-12-04T19:36:33.486Z,6098.31
2022-12-04T19:38:36.483Z,5777.00
2022-12-04T19:40:39.097Z,5456.91
2022-12-04T19:42:41.720Z,5457.75
2022-12-04T19:44:49.172Z,4816.97
2022-12-04T19:46:53.904Z,3856.69
2022-12-04T19:48:58.580Z,4176.84
2022-12-04T19:51:05.679Z,5137.22
2022-12-04T19:53:10.960Z,3537.63
2022-12-04T19:55:13.596Z,4498.13
2022-12-04T19:57:16.266Z,3538.25
2022-12-04T19:59:20.407Z,3219.25
2022-12-04T20:01:26.721Z,2580.00
2022-12-04T20:03:30.949Z,1941.53
2022-12-04T20:05:36.921Z,-1893.09
2022-12-04T20:07:39.643Z,-615.19
2022-12-04T20:09:46.066Z,-3807.84
2022-12-04T20:11:51.475Z,-4765.03
2022-12-04T20:13:55.643Z,-7953.28
2022-12-04T20:16:02.198Z,-7635.47
2022-12-04T20:18:05.716Z,-9866.13
2022-12-04T20:20:10.535Z,-13049.16
2022-12-04T20:22:13.176Z,-11778.25
2022-12-04T20:24:17.639Z,-14006.75
2022-12-04T20:26:22.285Z,-16870.00
2022-12-04T20:28:24.916Z,-15918.81
2022-12-04T20:30:28.968Z,-22313.31
2022-12-04T20:32:31.660Z,-22034.16
2022-12-04T20:34:38.809Z,-23220.59
2022-12-04T20:36:47.202Z,-23223.78
2022-12-04T20:38:52.242Z,-23221.72
2022-12-04T20:40:54.965Z,-23221.56
2022-12-04T20:42:58.101Z,-23221.56
2022-12-04T20:45:00.722Z,-23220.13
2022-12-04T20:47:03.356Z,-23220.13
2022-12-04T20:49:08.782Z,-23217.56
2022-12-04T20:51:11.439Z,-23217.88
2022-12-04T20:53:15.452Z,-23219.66
2022-12-04T20:55:18.274Z,-23219.31
2022-12-04T20:57:22.494Z,-23221.09
2022-12-04T20:59:26.014Z,-23220.28
2022-12-04T21:01:29.570Z,-23221.88
2022-12-04T21:03:32.275Z,-23223.00
2022-12-04T21:05:34.864Z,-23221.09
2022-12-04T21:07:37.798Z,-23225.38
2022-12-04T21:09:41.923Z,-23225.72
2022-12-04T21:11:46.617Z,-23225.38
2022-12-04T21:14:03.210Z,-23223.16
2022-12-04T21:16:05.501Z,-23221.41
2022-12-04T21:18:08.220Z,-23223.47
2022-12-04T21:20:11.756Z,-23223.94
2022-12-04T21:22:14.607Z,-23223.47
2022-12-04T21:24:19.656Z,-23225.88
2022-12-04T21:26:23.761Z,-23224.28
2022-12-04T21:28:26.418Z,-23225.06
2022-12-04T21:30:29.049Z,-23224.13
2022-12-04T21:32:31.654Z,-23222.50
2022-12-04T21:34:34.520Z,-23224.13
2022-12-04T21:36:37.207Z,-23223.47
2022-12-04T21:38:41.409Z,-23221.56
2022-12-04T21:40:44.059Z,-23222.34
2022-12-04T21:42:48.048Z,-23224.75
2022-12-04T21:44:50.779Z,-23222.19
2022-12-04T21:46:53.544Z,-23223.78
2022-12-04T21:48:56.376Z,-23224.91
2022-12-04T21:50:59.161Z,-23223.78
2022-12-04T21:53:01.820Z,-23225.06
2022-12-04T21:55:05.082Z,-23223.78
2022-12-04T21:57:07.700Z,-23223.78
2022-12-04T21:59:12.201Z,-23225.38
2022-12-04T22:01:17.708Z,-23222.03
2022-12-04T22:03:20.471Z,-23222.50
2022-12-04T22:05:23.290Z,-23222.50
2022-12-04T22:07:26.007Z,-23223.94
2022-12-04T22:09:28.719Z,-23222.69
2022-12-04T22:11:31.384Z,-23224.13
2022-12-04T22:13:34.327Z,-23219.81
2022-12-04T22:15:40.093Z,-23222.19
2022-12-04T22:17:42.931Z,-23224.91
2022-12-04T22:19:45.608Z,-23223.78
2022-12-04T22:21:48.433Z,-23218.84
2022-12-04T22:23:55.744Z,-23218.06
2022-12-04T22:26:05.306Z,-23214.06
2022-12-04T22:28:07.964Z,-23216.44
2022-12-04T22:30:11.466Z,-23213.56
2022-12-04T22:32:15.486Z,-23213.91
2022-12-04T22:34:18.190Z,-23216.13
2022-12-04T22:36:23.486Z,-23219.31
2022-12-04T22:38:26.103Z,-23222.34
2022-12-04T22:40:28.746Z,-23220.94
2022-12-04T22:42:31.351Z,-23225.06
2022-12-04T22:44:33.955Z,-23218.69
2022-12-04T22:46:36.820Z,-23221.09
2022-12-04T22:48:42.475Z,-23225.06
2022-12-04T22:50:45.114Z,-23226.03
2022-12-04T22:52:47.786Z,-23224.13
2022-12-04T22:54:51.179Z,-23223.78
2022-12-04T22:56:53.838Z,-23219.16
2022-12-04T22:58:57.740Z,-23218.53
2022-12-04T23:01:00.378Z,-23219.16
2022-12-04T23:03:03.218Z,-23216.94
2022-12-04T23:05:07.960Z,-23218.38
2022-12-04T23:07:11.027Z,-23221.25
2022-12-04T23:09:15.950Z,-23218.69
2022-12-04T23:11:20.253Z,-23217.41
2022-12-04T23:13:24.034Z,-23218.69
2022-12-04T23:15:26.694Z,-23215.50
2022-12-04T23:17:29.390Z,-23217.41
2022-12-04T23:19:32.536Z,-23219.31
2022-12-04T23:21:36.765Z,-23219.00
2022-12-04T23:23:42.010Z,-23218.69
2022-12-04T23:25:44.660Z,-23218.06
2022-12-04T23:27:47.309Z,-23218.22
2022-12-04T23:30:05.668Z,-23220.28
2022-12-04T23:32:08.641Z,-23223.78
2022-12-04T23:34:11.332Z,-23223.16
2022-12-04T23:36:15.127Z,-23223.16
2022-12-04T23:38:19.153Z,-23220.94
2022-12-04T23:40:21.792Z,-23219.97
2022-12-04T23:42:24.488Z,-23219.97
2022-12-04T23:44:27.130Z,-23221.72
2022-12-04T23:46:32.395Z,-23219.66
2022-12-04T23:48:35.163Z,-23221.41
2022-12-04T23:50:37.966Z,-23218.53
2022-12-04T23:52:40.679Z,-23217.25
2022-12-04T23:54:44.627Z,-23218.38
2022-12-04T23:56:47.293Z,-23217.09
2022-12-04T23:58:52.136Z,-23218.84
